sensor_id;sensor_type;location;lat;lon;timestamp;temperature;humidity
5881;DHT22;2966;52.598;10.928;2022-09-20T00:00:16;8.90;99.90
5881;DHT22;2966;52.598;10.928;2022-09-20T00:02:43;8.90;99.90
5881;DHT22;2966;52.598;10.928;2022-09-20T00:05:09;8.90;99.90
5881;DHT22;2966;52.598;10.928;2022-09-20T00:07:37;8.90;99.90
5881;DHT22;2966;52.598;10.928;2022-09-20T00:10:07;8.90;99.90
5881;DHT22;2966;52.598;10.928;2022-09-20T00:12:37;8.90;99.90
5881;DHT22;2966;52.598;10.928;2022-09-20T00:15:05;8.90;99.90
5881;DHT22;2966;52.598;10.928;2022-09-20T00:17:32;8.90;99.90
5881;DHT22;2966;52.598;10.928;2022-09-20T00:19:58;8.90;99.90
5881;DHT22;2966;52.598;10.928;2022-09-20T00:22:25;8.90;99.90
5881;DHT22;2966;52.598;10.928;2022-09-20T00:24:53;8.90;99.90
5881;DHT22;2966;52.598;10.928;2022-09-20T00:27:20;8.90;99.90
5881;DHT22;2966;52.598;10.928;2022-09-20T00:29:46;8.90;99.90
5881;DHT22;2966;52.598;10.928;2022-09-20T00:32:13;8.90;99.90
5881;DHT22;2966;52.598;10.928;2022-09-20T00:34:40;8.90;99.90
5881;DHT22;2966;52.598;10.928;2022-09-20T00:37:25;8.90;99.90
5881;DHT22;2966;52.598;10.928;2022-09-20T00:39:53;8.90;99.90
5881;DHT22;2966;52.598;10.928;2022-09-20T00:42:26;8.90;99.90
5881;DHT22;2966;52.598;10.928;2022-09-20T00:44:56;8.80;99.90
5881;DHT22;2966;52.598;10.928;2022-09-20T00:47:39;8.90;99.90
5881;DHT22;2966;52.598;10.928;2022-09-20T00:50:17;8.80;99.90
5881;DHT22;2966;52.598;10.928;2022-09-20T00:52:49;8.80;99.90
5881;DHT22;2966;52.598;10.928;2022-09-20T00:55:19;8.80;99.90
5881;DHT22;2966;52.598;10.928;2022-09-20T00:57:46;8.80;99.90
5881;DHT22;2966;52.598;10.928;2022-09-20T01:00:13;8.80;99.90
5881;DHT22;2966;52.598;10.928;2022-09-20T01:02:43;8.80;99.90
5881;DHT22;2966;52.598;10.928;2022-09-20T01:05:13;8.80;99.90
5881;DHT22;2966;52.598;10.928;2022-09-20T01:07:41;8.80;99.90
5881;DHT22;2966;52.598;10.928;2022-09-20T01:10:08;8.80;99.90
5881;DHT22;2966;52.598;10.928;2022-09-20T01:12:37;8.70;99.90
5881;DHT22;2966;52.598;10.928;2022-09-20T01:15:07;8.70;99.90
5881;DHT22;2966;52.598;10.928;2022-09-20T01:17:37;8.70;99.90
5881;DHT22;2966;52.598;10.928;2022-09-20T01:20:13;8.70;99.90
5881;DHT22;2966;52.598;10.928;2022-09-20T01:22:50;8.70;99.90
5881;DHT22;2966;52.598;10.928;2022-09-20T01:25:28;8.70;99.90
5881;DHT22;2966;52.598;10.928;2022-09-20T01:28:01;8.70;99.90
5881;DHT22;2966;52.598;10.928;2022-09-20T01:30:37;8.60;99.90
5881;DHT22;2966;52.598;10.928;2022-09-20T01:33:09;8.60;99.90
5881;DHT22;2966;52.598;10.928;2022-09-20T01:35:38;8.60;99.90
5881;DHT22;2966;52.598;10.928;2022-09-20T01:38:17;8.50;99.90
5881;DHT22;2966;52.598;10.928;2022-09-20T01:40:53;8.50;99.90
5881;DHT22;2966;52.598;10.928;2022-09-20T01:43:28;8.50;99.90
5881;DHT22;2966;52.598;10.928;2022-09-20T01:45:58;8.40;99.90
5881;DHT22;2966;52.598;10.928;2022-09-20T01:48:31;8.40;99.90
5881;DHT22;2966;52.598;10.928;2022-09-20T01:51:45;8.40;99.90
5881;DHT22;2966;52.598;10.928;2022-09-20T01:54:42;8.40;99.90
5881;DHT22;2966;52.598;10.928;2022-09-20T02:00:16;8.40;99.90
5881;DHT22;2966;52.598;10.928;2022-09-20T02:03:22;8.50;99.90
5881;DHT22;2966;52.598;10.928;2022-09-20T02:06:20;8.50;99.90
5881;DHT22;2966;52.598;10.928;2022-09-20T02:09:17;8.50;99.90
5881;DHT22;2966;52.598;10.928;2022-09-20T02:11:58;8.50;99.90
5881;DHT22;2966;52.598;10.928;2022-09-20T02:14:39;8.50;99.90
5881;DHT22;2966;52.598;10.928;2022-09-20T02:17:15;8.50;99.90
5881;DHT22;2966;52.598;10.928;2022-09-20T02:20:06;8.50;99.90
5881;DHT22;2966;52.598;10.928;2022-09-20T02:22:43;8.50;99.90
5881;DHT22;2966;52.598;10.928;2022-09-20T02:25:24;8.60;99.90
5881;DHT22;2966;52.598;10.928;2022-09-20T02:28:03;8.60;99.90
5881;DHT22;2966;52.598;10.928;2022-09-20T02:30:40;8.60;99.90
5881;DHT22;2966;52.598;10.928;2022-09-20T02:33:34;8.60;99.90
5881;DHT22;2966;52.598;10.928;2022-09-20T02:36:22;8.60;99.90
5881;DHT22;2966;52.598;10.928;2022-09-20T02:38:58;8.70;99.90
5881;DHT22;2966;52.598;10.928;2022-09-20T02:41:45;8.70;99.90
5881;DHT22;2966;52.598;10.928;2022-09-20T02:44:25;8.60;99.90
5881;DHT22;2966;52.598;10.928;2022-09-20T02:47:01;8.60;99.90
5881;DHT22;2966;52.598;10.928;2022-09-20T02:49:41;8.60;99.90
5881;DHT22;2966;52.598;10.928;2022-09-20T02:52:15;8.60;99.90
5881;DHT22;2966;52.598;10.928;2022-09-20T02:54:49;8.60;99.90
5881;DHT22;2966;52.598;10.928;2022-09-20T02:57:22;8.60;99.90
5881;DHT22;2966;52.598;10.928;2022-09-20T02:59:55;8.60;99.90
5881;DHT22;2966;52.598;10.928;2022-09-20T03:02:26;8.60;99.90
5881;DHT22;2966;52.598;10.928;2022-09-20T03:05:07;8.60;99.90
5881;DHT22;2966;52.598;10.928;2022-09-20T03:07:45;8.60;99.90
5881;DHT22;2966;52.598;10.928;2022-09-20T03:10:20;8.60;99.90
5881;DHT22;2966;52.598;10.928;2022-09-20T03:12:58;8.60;99.90
5881;DHT22;2966;52.598;10.928;2022-09-20T03:15:37;8.60;99.90
5881;DHT22;2966;52.598;10.928;2022-09-20T03:18:10;8.60;99.90
5881;DHT22;2966;52.598;10.928;2022-09-20T03:20:48;8.50;99.90
5881;DHT22;2966;52.598;10.928;2022-09-20T03:23:32;8.60;99.90
5881;DHT22;2966;52.598;10.928;2022-09-20T03:26:09;8.50;99.90
5881;DHT22;2966;52.598;10.928;2022-09-20T03:31:44;8.50;99.90
5881;DHT22;2966;52.598;10.928;2022-09-20T03:34:21;8.50;99.90
5881;DHT22;2966;52.598;10.928;2022-09-20T03:37:05;8.50;99.90
5881;DHT22;2966;52.598;10.928;2022-09-20T03:42:27;8.50;99.90
5881;DHT22;2966;52.598;10.928;2022-09-20T03:45:19;8.60;99.90
5881;DHT22;2966;52.598;10.928;2022-09-20T03:50:55;8.60;99.90
5881;DHT22;2966;52.598;10.928;2022-09-20T03:53:50;8.60;99.90
5881;DHT22;2966;52.598;10.928;2022-09-20T03:56:42;8.60;99.90
5881;DHT22;2966;52.598;10.928;2022-09-20T03:59:24;8.60;99.90
5881;DHT22;2966;52.598;10.928;2022-09-20T04:02:16;8.60;99.90
5881;DHT22;2966;52.598;10.928;2022-09-20T04:04:49;8.60;99.90
5881;DHT22;2966;52.598;10.928;2022-09-20T04:07:22;8.60;99.90
5881;DHT22;2966;52.598;10.928;2022-09-20T04:13:08;8.60;99.90
5881;DHT22;2966;52.598;10.928;2022-09-20T04:15:45;8.60;99.90
5881;DHT22;2966;52.598;10.928;2022-09-20T04:18:21;8.60;99.90
5881;DHT22;2966;52.598;10.928;2022-09-20T04:20:52;8.60;99.90
5881;DHT22;2966;52.598;10.928;2022-09-20T04:23:31;8.60;99.90
5881;DHT22;2966;52.598;10.928;2022-09-20T04:26:02;8.70;99.90
5881;DHT22;2966;52.598;10.928;2022-09-20T04:28:36;8.70;99.90
5881;DHT22;2966;52.598;10.928;2022-09-20T04:31:16;8.70;99.90
5881;DHT22;2966;52.598;10.928;2022-09-20T04:33:49;8.70;99.90
5881;DHT22;2966;52.598;10.928;2022-09-20T04:39:14;8.60;99.90
5881;DHT22;2966;52.598;10.928;2022-09-20T04:42:31;8.70;99.90
5881;DHT22;2966;52.598;10.928;2022-09-20T04:45:48;8.70;99.90
5881;DHT22;2966;52.598;10.928;2022-09-20T04:48:47;8.70;99.90
5881;DHT22;2966;52.598;10.928;2022-09-20T04:54:44;8.60;99.90
5881;DHT22;2966;52.598;10.928;2022-09-20T04:57:31;8.60;99.90
5881;DHT22;2966;52.598;10.928;2022-09-20T05:00:05;8.60;99.90
5881;DHT22;2966;52.598;10.928;2022-09-20T05:02:56;8.70;99.90
5881;DHT22;2966;52.598;10.928;2022-09-20T05:05:59;8.70;99.90
5881;DHT22;2966;52.598;10.928;2022-09-20T05:08:53;8.70;99.90
5881;DHT22;2966;52.598;10.928;2022-09-20T05:11:49;8.70;99.90
5881;DHT22;2966;52.598;10.928;2022-09-20T05:14:37;8.60;99.90
5881;DHT22;2966;52.598;10.928;2022-09-20T05:17:16;8.60;99.90
5881;DHT22;2966;52.598;10.928;2022-09-20T05:19:59;8.60;99.90
5881;DHT22;2966;52.598;10.928;2022-09-20T05:22:56;8.70;99.90
5881;DHT22;2966;52.598;10.928;2022-09-20T05:25:51;8.70;99.90
5881;DHT22;2966;52.598;10.928;2022-09-20T05:28:28;8.70;99.90
5881;DHT22;2966;52.598;10.928;2022-09-20T05:31:00;8.70;99.90
5881;DHT22;2966;52.598;10.928;2022-09-20T05:33:32;8.60;99.90
5881;DHT22;2966;52.598;10.928;2022-09-20T05:36:09;8.70;99.90
5881;DHT22;2966;52.598;10.928;2022-09-20T05:38:45;8.70;99.90
5881;DHT22;2966;52.598;10.928;2022-09-20T05:41:21;8.70;99.90
5881;DHT22;2966;52.598;10.928;2022-09-20T05:44:03;8.70;99.90
5881;DHT22;2966;52.598;10.928;2022-09-20T05:46:38;8.70;99.90
5881;DHT22;2966;52.598;10.928;2022-09-20T05:49:15;8.70;99.90
5881;DHT22;2966;52.598;10.928;2022-09-20T05:54:58;8.70;99.90
5881;DHT22;2966;52.598;10.928;2022-09-20T05:57:36;8.70;99.90
5881;DHT22;2966;52.598;10.928;2022-09-20T06:00:09;8.80;99.90
5881;DHT22;2966;52.598;10.928;2022-09-20T06:02:43;8.80;99.90
5881;DHT22;2966;52.598;10.928;2022-09-20T06:05:15;8.80;99.90
5881;DHT22;2966;52.598;10.928;2022-09-20T06:07:51;8.80;99.90
5881;DHT22;2966;52.598;10.928;2022-09-20T06:10:42;8.80;99.90
5881;DHT22;2966;52.598;10.928;2022-09-20T06:16:20;8.80;99.90
5881;DHT22;2966;52.598;10.928;2022-09-20T06:19:03;8.90;99.90
5881;DHT22;2966;52.598;10.928;2022-09-20T06:21:38;8.90;99.90
5881;DHT22;2966;52.598;10.928;2022-09-20T06:24:23;8.90;99.90
5881;DHT22;2966;52.598;10.928;2022-09-20T06:26:54;8.90;99.90
5881;DHT22;2966;52.598;10.928;2022-09-20T06:29:28;8.90;99.90
5881;DHT22;2966;52.598;10.928;2022-09-20T06:31:55;8.90;99.90
5881;DHT22;2966;52.598;10.928;2022-09-20T06:34:22;8.90;99.90
5881;DHT22;2966;52.598;10.928;2022-09-20T06:36:55;8.90;99.90
5881;DHT22;2966;52.598;10.928;2022-09-20T06:39:48;8.90;99.90
5881;DHT22;2966;52.598;10.928;2022-09-20T06:42:34;9.00;99.90
5881;DHT22;2966;52.598;10.928;2022-09-20T06:45:03;9.00;99.90
5881;DHT22;2966;52.598;10.928;2022-09-20T06:47:30;9.10;99.90
5881;DHT22;2966;52.598;10.928;2022-09-20T06:49:57;9.10;99.90
5881;DHT22;2966;52.598;10.928;2022-09-20T06:52:24;9.10;99.90
5881;DHT22;2966;52.598;10.928;2022-09-20T06:54:54;9.00;99.90
5881;DHT22;2966;52.598;10.928;2022-09-20T06:57:23;9.10;99.90
5881;DHT22;2966;52.598;10.928;2022-09-20T06:59:52;9.10;99.90
5881;DHT22;2966;52.598;10.928;2022-09-20T07:02:19;9.20;99.90
5881;DHT22;2966;52.598;10.928;2022-09-20T07:04:46;9.20;99.90
5881;DHT22;2966;52.598;10.928;2022-09-20T07:07:15;9.20;99.90
5881;DHT22;2966;52.598;10.928;2022-09-20T07:09:43;9.30;99.90
5881;DHT22;2966;52.598;10.928;2022-09-20T07:12:11;9.30;99.90
5881;DHT22;2966;52.598;10.928;2022-09-20T07:14:38;9.20;99.90
5881;DHT22;2966;52.598;10.928;2022-09-20T07:17:06;9.30;99.90
5881;DHT22;2966;52.598;10.928;2022-09-20T07:19:32;9.30;99.90
5881;DHT22;2966;52.598;10.928;2022-09-20T07:22:00;9.40;99.90
5881;DHT22;2966;52.598;10.928;2022-09-20T07:24:27;9.40;99.90
5881;DHT22;2966;52.598;10.928;2022-09-20T07:26:58;9.40;99.90
5881;DHT22;2966;52.598;10.928;2022-09-20T07:29:27;9.40;99.90
5881;DHT22;2966;52.598;10.928;2022-09-20T07:31:55;9.50;99.90
5881;DHT22;2966;52.598;10.928;2022-09-20T07:34:22;9.60;99.90
5881;DHT22;2966;52.598;10.928;2022-09-20T07:36:49;9.40;99.90
5881;DHT22;2966;52.598;10.928;2022-09-20T07:39:17;9.40;99.90
5881;DHT22;2966;52.598;10.928;2022-09-20T07:41:44;9.40;99.90
5881;DHT22;2966;52.598;10.928;2022-09-20T07:44:13;9.40;99.90
5881;DHT22;2966;52.598;10.928;2022-09-20T07:46:51;9.50;99.90
5881;DHT22;2966;52.598;10.928;2022-09-20T07:49:19;9.60;99.90
5881;DHT22;2966;52.598;10.928;2022-09-20T07:51:47;9.50;99.90
5881;DHT22;2966;52.598;10.928;2022-09-20T07:54:14;9.50;99.90
5881;DHT22;2966;52.598;10.928;2022-09-20T07:56:44;9.70;99.90
5881;DHT22;2966;52.598;10.928;2022-09-20T07:59:11;9.80;99.90
5881;DHT22;2966;52.598;10.928;2022-09-20T08:01:39;9.70;99.90
5881;DHT22;2966;52.598;10.928;2022-09-20T08:04:08;9.80;99.90
5881;DHT22;2966;52.598;10.928;2022-09-20T08:06:36;9.80;99.90
5881;DHT22;2966;52.598;10.928;2022-09-20T08:09:03;9.90;99.90
5881;DHT22;2966;52.598;10.928;2022-09-20T08:11:30;9.90;99.90
5881;DHT22;2966;52.598;10.928;2022-09-20T08:13:58;10.00;99.90
5881;DHT22;2966;52.598;10.928;2022-09-20T08:16:26;10.10;99.90
5881;DHT22;2966;52.598;10.928;2022-09-20T08:18:55;10.20;99.90
5881;DHT22;2966;52.598;10.928;2022-09-20T08:21:24;10.20;99.90
5881;DHT22;2966;52.598;10.928;2022-09-20T08:23:51;10.30;99.90
5881;DHT22;2966;52.598;10.928;2022-09-20T08:26:20;10.40;99.90
5881;DHT22;2966;52.598;10.928;2022-09-20T08:28:51;10.60;99.90
5881;DHT22;2966;52.598;10.928;2022-09-20T08:31:19;10.60;99.90
5881;DHT22;2966;52.598;10.928;2022-09-20T08:33:48;10.60;99.90
5881;DHT22;2966;52.598;10.928;2022-09-20T08:36:16;10.80;99.90
5881;DHT22;2966;52.598;10.928;2022-09-20T08:38:44;10.70;99.90
5881;DHT22;2966;52.598;10.928;2022-09-20T08:41:13;10.90;99.90
5881;DHT22;2966;52.598;10.928;2022-09-20T08:43:44;10.90;99.90
5881;DHT22;2966;52.598;10.928;2022-09-20T08:46:15;10.80;99.90
5881;DHT22;2966;52.598;10.928;2022-09-20T08:48:43;10.70;99.90
5881;DHT22;2966;52.598;10.928;2022-09-20T08:51:12;10.90;99.90
5881;DHT22;2966;52.598;10.928;2022-09-20T08:53:44;10.80;99.90
5881;DHT22;2966;52.598;10.928;2022-09-20T08:56:17;11.00;99.90
5881;DHT22;2966;52.598;10.928;2022-09-20T08:58:44;11.00;99.90
5881;DHT22;2966;52.598;10.928;2022-09-20T09:01:16;11.10;99.90
5881;DHT22;2966;52.598;10.928;2022-09-20T09:03:44;11.20;99.90
5881;DHT22;2966;52.598;10.928;2022-09-20T09:06:12;11.30;99.90
5881;DHT22;2966;52.598;10.928;2022-09-20T09:08:43;11.30;99.90
5881;DHT22;2966;52.598;10.928;2022-09-20T09:11:13;11.50;99.90
5881;DHT22;2966;52.598;10.928;2022-09-20T09:13:47;11.70;99.90
5881;DHT22;2966;52.598;10.928;2022-09-20T09:16:19;11.70;99.90
5881;DHT22;2966;52.598;10.928;2022-09-20T09:18:47;11.70;99.90
5881;DHT22;2966;52.598;10.928;2022-09-20T09:21:18;11.80;99.90
5881;DHT22;2966;52.598;10.928;2022-09-20T09:23:50;11.70;99.90
5881;DHT22;2966;52.598;10.928;2022-09-20T09:26:20;11.70;99.90
5881;DHT22;2966;52.598;10.928;2022-09-20T09:31:28;12.00;99.90
5881;DHT22;2966;52.598;10.928;2022-09-20T09:33:57;12.20;99.90
5881;DHT22;2966;52.598;10.928;2022-09-20T09:36:25;12.30;99.90
5881;DHT22;2966;52.598;10.928;2022-09-20T09:39:14;12.30;99.90
5881;DHT22;2966;52.598;10.928;2022-09-20T09:41:41;12.10;99.90
5881;DHT22;2966;52.598;10.928;2022-09-20T09:44:19;12.10;99.90
5881;DHT22;2966;52.598;10.928;2022-09-20T09:46:47;12.30;99.90
5881;DHT22;2966;52.598;10.928;2022-09-20T09:49:16;12.40;99.90
5881;DHT22;2966;52.598;10.928;2022-09-20T09:52:01;12.50;99.90
5881;DHT22;2966;52.598;10.928;2022-09-20T09:54:32;12.50;99.90
5881;DHT22;2966;52.598;10.928;2022-09-20T09:57:09;12.40;99.90
5881;DHT22;2966;52.598;10.928;2022-09-20T09:59:56;12.30;99.90
5881;DHT22;2966;52.598;10.928;2022-09-20T10:05:22;12.60;99.90
5881;DHT22;2966;52.598;10.928;2022-09-20T10:07:56;12.70;99.90
5881;DHT22;2966;52.598;10.928;2022-09-20T10:10:30;12.60;99.90
5881;DHT22;2966;52.598;10.928;2022-09-20T10:13:09;12.40;99.90
5881;DHT22;2966;52.598;10.928;2022-09-20T10:15:44;12.60;99.90
5881;DHT22;2966;52.598;10.928;2022-09-20T10:18:40;13.00;99.90
5881;DHT22;2966;52.598;10.928;2022-09-20T10:21:20;13.20;99.90
5881;DHT22;2966;52.598;10.928;2022-09-20T10:23:57;13.50;99.90
5881;DHT22;2966;52.598;10.928;2022-09-20T10:26:40;13.80;99.90
5881;DHT22;2966;52.598;10.928;2022-09-20T10:29:16;13.60;99.90
5881;DHT22;2966;52.598;10.928;2022-09-20T10:31:54;13.40;99.90
5881;DHT22;2966;52.598;10.928;2022-09-20T10:34:55;13.30;99.90
5881;DHT22;2966;52.598;10.928;2022-09-20T10:37:38;13.70;99.90
5881;DHT22;2966;52.598;10.928;2022-09-20T10:40:25;13.90;99.90
5881;DHT22;2966;52.598;10.928;2022-09-20T10:43:25;14.10;99.90
5881;DHT22;2966;52.598;10.928;2022-09-20T10:45:59;14.30;99.90
5881;DHT22;2966;52.598;10.928;2022-09-20T10:48:32;14.40;99.90
5881;DHT22;2966;52.598;10.928;2022-09-20T10:51:11;14.10;99.90
5881;DHT22;2966;52.598;10.928;2022-09-20T10:53:43;13.90;99.90
5881;DHT22;2966;52.598;10.928;2022-09-20T10:56:22;14.00;99.90
5881;DHT22;2966;52.598;10.928;2022-09-20T10:59:14;14.10;99.90
5881;DHT22;2966;52.598;10.928;2022-09-20T11:01:53;14.30;99.90
5881;DHT22;2966;52.598;10.928;2022-09-20T11:04:44;14.40;99.90
5881;DHT22;2966;52.598;10.928;2022-09-20T11:07:17;14.50;99.90
5881;DHT22;2966;52.598;10.928;2022-09-20T11:09:50;14.20;99.90
5881;DHT22;2966;52.598;10.928;2022-09-20T11:12:23;14.20;99.90
5881;DHT22;2966;52.598;10.928;2022-09-20T11:14:56;14.30;99.90
5881;DHT22;2966;52.598;10.928;2022-09-20T11:17:26;14.60;99.90
5881;DHT22;2966;52.598;10.928;2022-09-20T11:19:58;14.70;99.90
5881;DHT22;2966;52.598;10.928;2022-09-20T11:22:30;14.70;99.90
5881;DHT22;2966;52.598;10.928;2022-09-20T11:25:02;14.90;99.90
5881;DHT22;2966;52.598;10.928;2022-09-20T11:27:35;14.90;99.90
5881;DHT22;2966;52.598;10.928;2022-09-20T11:30:06;15.10;99.90
5881;DHT22;2966;52.598;10.928;2022-09-20T11:32:41;15.00;99.90
5881;DHT22;2966;52.598;10.928;2022-09-20T11:35:19;15.20;99.90
5881;DHT22;2966;52.598;10.928;2022-09-20T11:37:52;15.30;99.90
5881;DHT22;2966;52.598;10.928;2022-09-20T11:40:26;15.20;99.90
5881;DHT22;2966;52.598;10.928;2022-09-20T11:42:55;14.70;99.90
5881;DHT22;2966;52.598;10.928;2022-09-20T11:45:25;14.70;99.90
5881;DHT22;2966;52.598;10.928;2022-09-20T11:47:54;14.70;99.90
5881;DHT22;2966;52.598;10.928;2022-09-20T11:51:10;14.90;99.90
5881;DHT22;2966;52.598;10.928;2022-09-20T11:53:56;15.20;99.90
5881;DHT22;2966;52.598;10.928;2022-09-20T11:56:26;15.20;99.90
5881;DHT22;2966;52.598;10.928;2022-09-20T11:58:57;15.20;99.90
5881;DHT22;2966;52.598;10.928;2022-09-20T12:01:28;15.30;99.90
5881;DHT22;2966;52.598;10.928;2022-09-20T12:03:58;15.30;99.90
5881;DHT22;2966;52.598;10.928;2022-09-20T12:06:29;15.40;99.90
5881;DHT22;2966;52.598;10.928;2022-09-20T12:08:59;15.40;99.90
5881;DHT22;2966;52.598;10.928;2022-09-20T12:11:31;15.20;99.90
5881;DHT22;2966;52.598;10.928;2022-09-20T12:14:03;15.40;99.90
5881;DHT22;2966;52.598;10.928;2022-09-20T12:16:39;15.50;99.90
5881;DHT22;2966;52.598;10.928;2022-09-20T12:19:09;15.60;99.90
5881;DHT22;2966;52.598;10.928;2022-09-20T12:22:16;15.80;99.90
5881;DHT22;2966;52.598;10.928;2022-09-20T12:27:56;16.00;99.90
5881;DHT22;2966;52.598;10.928;2022-09-20T12:30:23;16.30;99.90
5881;DHT22;2966;52.598;10.928;2022-09-20T12:32:54;16.50;99.90
5881;DHT22;2966;52.598;10.928;2022-09-20T12:35:52;16.70;99.90
5881;DHT22;2966;52.598;10.928;2022-09-20T12:38:29;16.70;99.90
5881;DHT22;2966;52.598;10.928;2022-09-20T12:41:06;16.80;99.90
5881;DHT22;2966;52.598;10.928;2022-09-20T12:43:36;16.70;99.90
5881;DHT22;2966;52.598;10.928;2022-09-20T12:46:04;16.60;99.90
5881;DHT22;2966;52.598;10.928;2022-09-20T12:48:36;16.40;99.90
5881;DHT22;2966;52.598;10.928;2022-09-20T12:51:05;16.20;99.90
5881;DHT22;2966;52.598;10.928;2022-09-20T12:54:01;16.20;99.90
5881;DHT22;2966;52.598;10.928;2022-09-20T12:56:30;16.00;99.90
5881;DHT22;2966;52.598;10.928;2022-09-20T12:59:01;15.60;99.90
5881;DHT22;2966;52.598;10.928;2022-09-20T13:01:37;15.30;99.90
5881;DHT22;2966;52.598;10.928;2022-09-20T13:07:38;14.90;99.90
5881;DHT22;2966;52.598;10.928;2022-09-20T13:10:23;14.70;99.90
5881;DHT22;2966;52.598;10.928;2022-09-20T13:12:52;14.50;99.90
5881;DHT22;2966;52.598;10.928;2022-09-20T13:15:21;14.40;99.90
5881;DHT22;2966;52.598;10.928;2022-09-20T13:17:50;14.20;99.90
5881;DHT22;2966;52.598;10.928;2022-09-20T13:20:21;14.10;99.90
5881;DHT22;2966;52.598;10.928;2022-09-20T13:22:51;13.90;99.90
5881;DHT22;2966;52.598;10.928;2022-09-20T13:25:18;13.70;99.90
5881;DHT22;2966;52.598;10.928;2022-09-20T13:27:49;13.60;99.90
5881;DHT22;2966;52.598;10.928;2022-09-20T13:30:19;13.60;99.90
5881;DHT22;2966;52.598;10.928;2022-09-20T13:32:46;13.50;99.90
5881;DHT22;2966;52.598;10.928;2022-09-20T13:35:15;13.50;99.90
5881;DHT22;2966;52.598;10.928;2022-09-20T13:37:51;13.70;99.90
5881;DHT22;2966;52.598;10.928;2022-09-20T13:40:20;13.80;99.90
5881;DHT22;2966;52.598;10.928;2022-09-20T13:42:48;13.80;99.90
5881;DHT22;2966;52.598;10.928;2022-09-20T13:45:17;13.80;99.90
5881;DHT22;2966;52.598;10.928;2022-09-20T13:47:48;13.70;99.90
5881;DHT22;2966;52.598;10.928;2022-09-20T13:50:20;13.60;99.90
5881;DHT22;2966;52.598;10.928;2022-09-20T13:52:49;13.60;99.90
5881;DHT22;2966;52.598;10.928;2022-09-20T13:55:26;13.60;99.90
5881;DHT22;2966;52.598;10.928;2022-09-20T13:57:55;13.70;99.90
5881;DHT22;2966;52.598;10.928;2022-09-20T14:00:22;13.80;99.90
5881;DHT22;2966;52.598;10.928;2022-09-20T14:02:51;13.80;99.90
5881;DHT22;2966;52.598;10.928;2022-09-20T14:05:21;13.70;99.90
5881;DHT22;2966;52.598;10.928;2022-09-20T14:07:49;13.60;99.90
5881;DHT22;2966;52.598;10.928;2022-09-20T14:10:29;13.60;99.90
5881;DHT22;2966;52.598;10.928;2022-09-20T14:12:57;13.60;99.90
5881;DHT22;2966;52.598;10.928;2022-09-20T14:15:28;13.50;99.90
5881;DHT22;2966;52.598;10.928;2022-09-20T14:17:57;13.40;99.90
5881;DHT22;2966;52.598;10.928;2022-09-20T14:20:24;13.60;99.90
5881;DHT22;2966;52.598;10.928;2022-09-20T14:22:51;13.90;99.90
5881;DHT22;2966;52.598;10.928;2022-09-20T14:25:21;14.10;99.90
5881;DHT22;2966;52.598;10.928;2022-09-20T14:28:05;14.30;99.90
5881;DHT22;2966;52.598;10.928;2022-09-20T14:30:33;14.50;99.90
5881;DHT22;2966;52.598;10.928;2022-09-20T14:33:01;14.70;99.90
5881;DHT22;2966;52.598;10.928;2022-09-20T14:35:29;14.70;99.90
5881;DHT22;2966;52.598;10.928;2022-09-20T14:37:58;14.60;99.90
5881;DHT22;2966;52.598;10.928;2022-09-20T14:40:28;14.40;99.90
5881;DHT22;2966;52.598;10.928;2022-09-20T14:42:56;14.30;99.90
5881;DHT22;2966;52.598;10.928;2022-09-20T14:45:29;14.20;99.90
5881;DHT22;2966;52.598;10.928;2022-09-20T14:47:59;14.30;99.90
5881;DHT22;2966;52.598;10.928;2022-09-20T14:50:29;14.40;99.90
5881;DHT22;2966;52.598;10.928;2022-09-20T14:56:08;14.60;99.90
5881;DHT22;2966;52.598;10.928;2022-09-20T14:59:01;14.60;99.90
5881;DHT22;2966;52.598;10.928;2022-09-20T15:01:30;14.40;99.90
5881;DHT22;2966;52.598;10.928;2022-09-20T15:03:57;14.20;99.90
5881;DHT22;2966;52.598;10.928;2022-09-20T15:06:24;14.00;99.90
5881;DHT22;2966;52.598;10.928;2022-09-20T15:08:51;13.80;99.90
5881;DHT22;2966;52.598;10.928;2022-09-20T15:11:18;13.80;99.90
5881;DHT22;2966;52.598;10.928;2022-09-20T15:13:45;13.60;99.90
5881;DHT22;2966;52.598;10.928;2022-09-20T15:16:12;13.50;99.90
5881;DHT22;2966;52.598;10.928;2022-09-20T15:18:42;13.50;99.90
5881;DHT22;2966;52.598;10.928;2022-09-20T15:21:09;13.60;99.90
5881;DHT22;2966;52.598;10.928;2022-09-20T15:23:37;13.60;99.90
5881;DHT22;2966;52.598;10.928;2022-09-20T15:26:07;13.60;99.90
5881;DHT22;2966;52.598;10.928;2022-09-20T15:28:35;13.80;99.90
5881;DHT22;2966;52.598;10.928;2022-09-20T15:31:03;14.00;99.90
5881;DHT22;2966;52.598;10.928;2022-09-20T15:33:31;14.20;99.90
5881;DHT22;2966;52.598;10.928;2022-09-20T15:36:02;14.20;99.90
5881;DHT22;2966;52.598;10.928;2022-09-20T15:38:29;14.30;99.90
5881;DHT22;2966;52.598;10.928;2022-09-20T15:40:59;14.30;99.90
5881;DHT22;2966;52.598;10.928;2022-09-20T15:43:26;14.30;99.90
5881;DHT22;2966;52.598;10.928;2022-09-20T15:45:55;14.30;99.90
5881;DHT22;2966;52.598;10.928;2022-09-20T15:48:26;14.40;99.90
5881;DHT22;2966;52.598;10.928;2022-09-20T15:51:02;14.30;99.90
5881;DHT22;2966;52.598;10.928;2022-09-20T15:53:31;14.20;99.90
5881;DHT22;2966;52.598;10.928;2022-09-20T15:55:58;14.00;99.90
5881;DHT22;2966;52.598;10.928;2022-09-20T15:58:27;13.80;99.90
5881;DHT22;2966;52.598;10.928;2022-09-20T16:01:01;13.60;99.90
5881;DHT22;2966;52.598;10.928;2022-09-20T16:03:29;13.50;99.90
5881;DHT22;2966;52.598;10.928;2022-09-20T16:05:57;13.40;99.90
5881;DHT22;2966;52.598;10.928;2022-09-20T16:08:29;13.20;99.90
5881;DHT22;2966;52.598;10.928;2022-09-20T16:10:56;13.00;99.90
5881;DHT22;2966;52.598;10.928;2022-09-20T16:13:23;12.90;99.90
5881;DHT22;2966;52.598;10.928;2022-09-20T16:15:54;12.70;99.90
5881;DHT22;2966;52.598;10.928;2022-09-20T16:18:21;12.70;99.90
5881;DHT22;2966;52.598;10.928;2022-09-20T16:21:06;12.70;99.90
5881;DHT22;2966;52.598;10.928;2022-09-20T16:23:34;12.60;99.90
5881;DHT22;2966;52.598;10.928;2022-09-20T16:26:01;12.60;99.90
5881;DHT22;2966;52.598;10.928;2022-09-20T16:28:28;12.50;99.90
5881;DHT22;2966;52.598;10.928;2022-09-20T16:30:55;12.40;99.90
5881;DHT22;2966;52.598;10.928;2022-09-20T16:33:24;12.40;99.90
5881;DHT22;2966;52.598;10.928;2022-09-20T16:35:53;12.30;99.90
5881;DHT22;2966;52.598;10.928;2022-09-20T16:38:21;12.20;99.90
5881;DHT22;2966;52.598;10.928;2022-09-20T16:40:50;12.10;99.90
5881;DHT22;2966;52.598;10.928;2022-09-20T16:43:16;11.90;99.90
5881;DHT22;2966;52.598;10.928;2022-09-20T16:45:58;11.80;99.90
5881;DHT22;2966;52.598;10.928;2022-09-20T16:48:25;11.70;99.90
5881;DHT22;2966;52.598;10.928;2022-09-20T16:50:55;11.60;99.90
5881;DHT22;2966;52.598;10.928;2022-09-20T16:53:27;11.60;99.90
5881;DHT22;2966;52.598;10.928;2022-09-20T16:56:18;11.50;99.90
5881;DHT22;2966;52.598;10.928;2022-09-20T16:58:49;11.30;99.90
5881;DHT22;2966;52.598;10.928;2022-09-20T17:01:19;11.30;99.90
5881;DHT22;2966;52.598;10.928;2022-09-20T17:03:51;11.20;99.90
5881;DHT22;2966;52.598;10.928;2022-09-20T17:06:22;11.10;99.90
5881;DHT22;2966;52.598;10.928;2022-09-20T17:08:53;11.00;99.90
5881;DHT22;2966;52.598;10.928;2022-09-20T17:11:23;10.90;99.90
5881;DHT22;2966;52.598;10.928;2022-09-20T17:13:51;10.80;99.90
5881;DHT22;2966;52.598;10.928;2022-09-20T17:16:19;10.70;99.90
5881;DHT22;2966;52.598;10.928;2022-09-20T17:18:51;10.60;99.90